sensor_id;sensor_type;location;lat;lon;timestamp;P1;durP1;ratioP1;P2;durP2;ratioP2
69036;SDS011;58547;51.690;5.186;2022-08-01T00:01:30;21.27;;;10.02;;
69036;SDS011;58547;51.690;5.186;2022-08-01T00:03:56;14.93;;;9.73;;
69036;SDS011;58547;51.690;5.186;2022-08-01T00:06:21;15.32;;;9.48;;
69036;SDS011;58547;51.690;5.186;2022-08-01T00:08:46;16.17;;;10.23;;
69036;SDS011;58547;51.690;5.186;2022-08-01T00:11:12;14.15;;;8.63;;
69036;SDS011;58547;51.690;5.186;2022-08-01T00:13:37;15.18;;;9.60;;
69036;SDS011;58547;51.690;5.186;2022-08-01T00:16:02;14.20;;;9.05;;
69036;SDS011;58547;51.690;5.186;2022-08-01T00:18:28;17.20;;;9.60;;
69036;SDS011;58547;51.690;5.186;2022-08-01T00:20:53;17.48;;;9.52;;
69036;SDS011;58547;51.690;5.186;2022-08-01T00:23:19;15.98;;;9.20;;
69036;SDS011;58547;51.690;5.186;2022-08-01T00:25:44;15.00;;;9.88;;
69036;SDS011;58547;51.690;5.186;2022-08-01T00:28:09;16.73;;;9.73;;
69036;SDS011;58547;51.690;5.186;2022-08-01T00:30:35;17.95;;;9.25;;
69036;SDS011;58547;51.690;5.186;2022-08-01T00:33:01;14.75;;;9.35;;
69036;SDS011;58547;51.690;5.186;2022-08-01T00:35:26;16.27;;;9.30;;
69036;SDS011;58547;51.690;5.186;2022-08-01T00:37:52;17.65;;;9.98;;
69036;SDS011;58547;51.690;5.186;2022-08-01T00:40:17;16.38;;;9.48;;
69036;SDS011;58547;51.690;5.186;2022-08-01T00:42:43;21.38;;;10.20;;
69036;SDS011;58547;51.690;5.186;2022-08-01T00:45:08;17.83;;;10.15;;
69036;SDS011;58547;51.690;5.186;2022-08-01T00:47:34;15.02;;;9.02;;
69036;SDS011;58547;51.690;5.186;2022-08-01T00:49:59;17.58;;;8.32;;
69036;SDS011;58547;51.690;5.186;2022-08-01T00:52:24;15.07;;;9.13;;
69036;SDS011;58547;51.690;5.186;2022-08-01T00:54:50;15.75;;;9.32;;
69036;SDS011;58547;51.690;5.186;2022-08-01T00:57:16;14.52;;;8.65;;
69036;SDS011;58547;51.690;5.186;2022-08-01T00:59:41;12.25;;;8.18;;
69036;SDS011;58547;51.690;5.186;2022-08-01T01:02:07;18.83;;;9.93;;
69036;SDS011;58547;51.690;5.186;2022-08-01T01:04:32;15.63;;;9.57;;
69036;SDS011;58547;51.690;5.186;2022-08-01T01:07:09;13.60;;;8.77;;
69036;SDS011;58547;51.690;5.186;2022-08-01T01:09:58;14.13;;;8.98;;
69036;SDS011;58547;51.690;5.186;2022-08-01T01:31:30;15.43;;;8.02;;
69036;SDS011;58547;51.690;5.186;2022-08-01T01:33:59;16.60;;;8.18;;
69036;SDS011;58547;51.690;5.186;2022-08-01T01:36:29;14.73;;;7.85;;
69036;SDS011;58547;51.690;5.186;2022-08-01T01:38:57;14.07;;;8.43;;
69036;SDS011;58547;51.690;5.186;2022-08-01T01:41:25;14.93;;;8.13;;
69036;SDS011;58547;51.690;5.186;2022-08-01T01:43:52;12.15;;;7.38;;
69036;SDS011;58547;51.690;5.186;2022-08-01T01:46:19;12.93;;;8.35;;
69036;SDS011;58547;51.690;5.186;2022-08-01T01:48:48;15.35;;;8.95;;
69036;SDS011;58547;51.690;5.186;2022-08-01T01:51:14;14.90;;;7.90;;
69036;SDS011;58547;51.690;5.186;2022-08-01T01:53:40;13.27;;;7.95;;
69036;SDS011;58547;51.690;5.186;2022-08-01T01:56:06;13.38;;;8.32;;
69036;SDS011;58547;51.690;5.186;2022-08-01T01:58:34;18.48;;;8.57;;
69036;SDS011;58547;51.690;5.186;2022-08-01T02:01:03;15.68;;;7.55;;
69036;SDS011;58547;51.690;5.186;2022-08-01T02:03:31;13.10;;;8.25;;
69036;SDS011;58547;51.690;5.186;2022-08-01T02:06:01;13.43;;;7.53;;
69036;SDS011;58547;51.690;5.186;2022-08-01T02:08:28;16.25;;;8.02;;
69036;SDS011;58547;51.690;5.186;2022-08-01T02:10:55;14.00;;;8.02;;
69036;SDS011;58547;51.690;5.186;2022-08-01T02:13:39;14.60;;;9.03;;
69036;SDS011;58547;51.690;5.186;2022-08-01T02:16:06;11.60;;;7.32;;
69036;SDS011;58547;51.690;5.186;2022-08-01T02:18:36;13.60;;;7.88;;
69036;SDS011;58547;51.690;5.186;2022-08-01T02:21:02;13.73;;;8.15;;
69036;SDS011;58547;51.690;5.186;2022-08-01T02:23:31;15.63;;;9.35;;
69036;SDS011;58547;51.690;5.186;2022-08-01T02:26:00;16.83;;;8.25;;
69036;SDS011;58547;51.690;5.186;2022-08-01T02:28:36;13.50;;;8.20;;
69036;SDS011;58547;51.690;5.186;2022-08-01T02:31:09;17.25;;;9.45;;
69036;SDS011;58547;51.690;5.186;2022-08-01T02:33:40;15.55;;;8.13;;
69036;SDS011;58547;51.690;5.186;2022-08-01T02:36:08;12.20;;;8.23;;
69036;SDS011;58547;51.690;5.186;2022-08-01T02:38:37;15.25;;;8.10;;
69036;SDS011;58547;51.690;5.186;2022-08-01T02:41:07;17.20;;;8.82;;
69036;SDS011;58547;51.690;5.186;2022-08-01T02:43:40;12.18;;;7.65;;
69036;SDS011;58547;51.690;5.186;2022-08-01T02:46:08;15.52;;;8.23;;
69036;SDS011;58547;51.690;5.186;2022-08-01T02:48:41;13.00;;;7.47;;
69036;SDS011;58547;51.690;5.186;2022-08-01T02:51:07;12.98;;;7.70;;
69036;SDS011;58547;51.690;5.186;2022-08-01T02:53:36;13.90;;;9.02;;
69036;SDS011;58547;51.690;5.186;2022-08-01T02:56:05;19.05;;;9.80;;
69036;SDS011;58547;51.690;5.186;2022-08-01T02:58:33;15.07;;;7.90;;
69036;SDS011;58547;51.690;5.186;2022-08-01T03:01:01;14.68;;;8.40;;
69036;SDS011;58547;51.690;5.186;2022-08-01T03:03:27;12.57;;;7.93;;
69036;SDS011;58547;51.690;5.186;2022-08-01T03:05:54;17.40;;;10.20;;
69036;SDS011;58547;51.690;5.186;2022-08-01T03:08:20;13.82;;;8.55;;
69036;SDS011;58547;51.690;5.186;2022-08-01T03:10:47;19.13;;;10.45;;
69036;SDS011;58547;51.690;5.186;2022-08-01T03:13:14;16.20;;;8.57;;
69036;SDS011;58547;51.690;5.186;2022-08-01T03:15:41;14.23;;;8.85;;
69036;SDS011;58547;51.690;5.186;2022-08-01T03:18:09;14.60;;;9.43;;
69036;SDS011;58547;51.690;5.186;2022-08-01T03:20:36;15.20;;;9.02;;
69036;SDS011;58547;51.690;5.186;2022-08-01T03:23:03;16.15;;;8.95;;
69036;SDS011;58547;51.690;5.186;2022-08-01T03:25:30;17.70;;;10.50;;
69036;SDS011;58547;51.690;5.186;2022-08-01T03:27:58;17.45;;;10.25;;
69036;SDS011;58547;51.690;5.186;2022-08-01T03:30:27;19.25;;;10.15;;
69036;SDS011;58547;51.690;5.186;2022-08-01T03:32:54;19.27;;;11.35;;
69036;SDS011;58547;51.690;5.186;2022-08-01T03:35:20;19.42;;;9.90;;
69036;SDS011;58547;51.690;5.186;2022-08-01T03:37:49;17.70;;;9.13;;
69036;SDS011;58547;51.690;5.186;2022-08-01T03:40:20;16.92;;;8.95;;
69036;SDS011;58547;51.690;5.186;2022-08-01T03:42:49;18.75;;;10.98;;
69036;SDS011;58547;51.690;5.186;2022-08-01T03:45:19;16.85;;;10.00;;
69036;SDS011;58547;51.690;5.186;2022-08-01T03:47:47;16.55;;;9.25;;
69036;SDS011;58547;51.690;5.186;2022-08-01T03:50:17;16.83;;;9.13;;
69036;SDS011;58547;51.690;5.186;2022-08-01T03:52:46;17.17;;;10.38;;
69036;SDS011;58547;51.690;5.186;2022-08-01T03:55:13;18.60;;;10.15;;
69036;SDS011;58547;51.690;5.186;2022-08-01T03:57:41;15.55;;;9.18;;
69036;SDS011;58547;51.690;5.186;2022-08-01T04:00:08;13.73;;;8.85;;
69036;SDS011;58547;51.690;5.186;2022-08-01T04:02:35;15.13;;;9.52;;
69036;SDS011;58547;51.690;5.186;2022-08-01T04:05:01;14.52;;;9.10;;
69036;SDS011;58547;51.690;5.186;2022-08-01T04:07:33;19.08;;;9.63;;
69036;SDS011;58547;51.690;5.186;2022-08-01T04:10:01;14.48;;;8.48;;
69036;SDS011;58547;51.690;5.186;2022-08-01T04:12:27;13.82;;;8.40;;
69036;SDS011;58547;51.690;5.186;2022-08-01T04:14:52;13.88;;;8.70;;
69036;SDS011;58547;51.690;5.186;2022-08-01T04:17:18;14.05;;;7.97;;
69036;SDS011;58547;51.690;5.186;2022-08-01T04:22:10;12.50;;;7.50;;
69036;SDS011;58547;51.690;5.186;2022-08-01T04:24:38;14.35;;;6.88;;
69036;SDS011;58547;51.690;5.186;2022-08-01T04:27:06;14.13;;;7.15;;
69036;SDS011;58547;51.690;5.186;2022-08-01T04:29:35;13.55;;;7.35;;
69036;SDS011;58547;51.690;5.186;2022-08-01T04:32:02;10.73;;;6.82;;
69036;SDS011;58547;51.690;5.186;2022-08-01T04:34:31;11.52;;;6.22;;
69036;SDS011;58547;51.690;5.186;2022-08-01T04:36:58;12.70;;;7.32;;
69036;SDS011;58547;51.690;5.186;2022-08-01T04:39:26;14.00;;;6.63;;
69036;SDS011;58547;51.690;5.186;2022-08-01T04:41:53;15.10;;;6.97;;
69036;SDS011;58547;51.690;5.186;2022-08-01T04:44:23;11.40;;;6.38;;
69036;SDS011;58547;51.690;5.186;2022-08-01T04:46:49;13.27;;;7.25;;
69036;SDS011;58547;51.690;5.186;2022-08-01T04:49:19;11.05;;;5.45;;
69036;SDS011;58547;51.690;5.186;2022-08-01T04:52:03;9.77;;;5.63;;
69036;SDS011;58547;51.690;5.186;2022-08-01T04:54:31;16.90;;;6.95;;
69036;SDS011;58547;51.690;5.186;2022-08-01T04:56:59;9.90;;;6.18;;
69036;SDS011;58547;51.690;5.186;2022-08-01T04:59:28;17.58;;;7.68;;
69036;SDS011;58547;51.690;5.186;2022-08-01T05:02:06;12.98;;;6.72;;
69036;SDS011;58547;51.690;5.186;2022-08-01T05:04:33;12.23;;;6.07;;
69036;SDS011;58547;51.690;5.186;2022-08-01T05:06:59;12.85;;;6.97;;
69036;SDS011;58547;51.690;5.186;2022-08-01T05:09:25;14.55;;;7.38;;
69036;SDS011;58547;51.690;5.186;2022-08-01T05:11:50;11.95;;;6.60;;
69036;SDS011;58547;51.690;5.186;2022-08-01T05:14:16;10.02;;;6.05;;
69036;SDS011;58547;51.690;5.186;2022-08-01T05:16:41;15.48;;;6.40;;
69036;SDS011;58547;51.690;5.186;2022-08-01T05:19:07;12.75;;;6.45;;
69036;SDS011;58547;51.690;5.186;2022-08-01T05:23:58;12.68;;;5.97;;
69036;SDS011;58547;51.690;5.186;2022-08-01T05:31:14;8.57;;;5.33;;
69036;SDS011;58547;51.690;5.186;2022-08-01T05:38:30;13.03;;;6.50;;
69036;SDS011;58547;51.690;5.186;2022-08-01T05:40:55;14.70;;;6.63;;
69036;SDS011;58547;51.690;5.186;2022-08-01T05:48:11;11.73;;;6.63;;
69036;SDS011;58547;51.690;5.186;2022-08-01T05:50:36;12.20;;;6.32;;
69036;SDS011;58547;51.690;5.186;2022-08-01T05:53:01;9.10;;;6.15;;
69036;SDS011;58547;51.690;5.186;2022-08-01T05:55:27;8.98;;;5.70;;
69036;SDS011;58547;51.690;5.186;2022-08-01T05:57:52;11.40;;;5.47;;
69036;SDS011;58547;51.690;5.186;2022-08-01T06:00:17;7.20;;;4.70;;
69036;SDS011;58547;51.690;5.186;2022-08-01T06:02:43;8.30;;;4.53;;
69036;SDS011;58547;51.690;5.186;2022-08-01T06:05:08;8.40;;;4.03;;
69036;SDS011;58547;51.690;5.186;2022-08-01T06:07:34;6.28;;;4.68;;
69036;SDS011;58547;51.690;5.186;2022-08-01T06:10:00;9.93;;;4.20;;
69036;SDS011;58547;51.690;5.186;2022-08-01T06:12:25;10.30;;;4.40;;
69036;SDS011;58547;51.690;5.186;2022-08-01T06:14:51;6.95;;;3.97;;
69036;SDS011;58547;51.690;5.186;2022-08-01T06:17:16;5.65;;;3.50;;
69036;SDS011;58547;51.690;5.186;2022-08-01T06:19:41;6.72;;;3.55;;
69036;SDS011;58547;51.690;5.186;2022-08-01T06:22:07;5.80;;;3.35;;
69036;SDS011;58547;51.690;5.186;2022-08-01T06:24:32;6.78;;;3.83;;
69036;SDS011;58547;51.690;5.186;2022-08-01T06:26:57;6.35;;;3.25;;
69036;SDS011;58547;51.690;5.186;2022-08-01T06:29:23;5.05;;;2.85;;
69036;SDS011;58547;51.690;5.186;2022-08-01T06:31:48;4.53;;;3.58;;
69036;SDS011;58547;51.690;5.186;2022-08-01T06:34:13;5.90;;;3.20;;
69036;SDS011;58547;51.690;5.186;2022-08-01T06:36:40;6.53;;;3.30;;
69036;SDS011;58547;51.690;5.186;2022-08-01T06:39:08;4.57;;;3.33;;
69036;SDS011;58547;51.690;5.186;2022-08-01T06:41:34;7.30;;;3.50;;
69036;SDS011;58547;51.690;5.186;2022-08-01T06:43:59;5.45;;;2.72;;
69036;SDS011;58547;51.690;5.186;2022-08-01T06:46:27;7.32;;;2.95;;
69036;SDS011;58547;51.690;5.186;2022-08-01T06:48:52;6.65;;;3.08;;
69036;SDS011;58547;51.690;5.186;2022-08-01T06:51:17;5.13;;;2.65;;
69036;SDS011;58547;51.690;5.186;2022-08-01T06:53:44;4.40;;;2.70;;
69036;SDS011;58547;51.690;5.186;2022-08-01T06:56:10;4.88;;;2.60;;
69036;SDS011;58547;51.690;5.186;2022-08-01T06:58:35;6.00;;;2.60;;
69036;SDS011;58547;51.690;5.186;2022-08-01T07:01:02;6.40;;;2.60;;
69036;SDS011;58547;51.690;5.186;2022-08-01T07:03:30;5.63;;;2.45;;
69036;SDS011;58547;51.690;5.186;2022-08-01T07:05:56;7.13;;;2.58;;
69036;SDS011;58547;51.690;5.186;2022-08-01T07:08:22;5.57;;;3.05;;
69036;SDS011;58547;51.690;5.186;2022-08-01T07:10:47;3.50;;;2.53;;
69036;SDS011;58547;51.690;5.186;2022-08-01T07:13:13;5.32;;;2.70;;
69036;SDS011;58547;51.690;5.186;2022-08-01T07:15:39;6.00;;;3.15;;
69036;SDS011;58547;51.690;5.186;2022-08-01T07:18:05;5.45;;;3.28;;
69036;SDS011;58547;51.690;5.186;2022-08-01T07:20:30;4.95;;;3.30;;
69036;SDS011;58547;51.690;5.186;2022-08-01T07:22:55;8.43;;;3.30;;
69036;SDS011;58547;51.690;5.186;2022-08-01T07:25:21;4.93;;;3.13;;
69036;SDS011;58547;51.690;5.186;2022-08-01T07:27:46;6.13;;;3.13;;
69036;SDS011;58547;51.690;5.186;2022-08-01T07:30:11;6.85;;;4.20;;
69036;SDS011;58547;51.690;5.186;2022-08-01T07:32:37;7.15;;;4.32;;
69036;SDS011;58547;51.690;5.186;2022-08-01T07:35:03;7.00;;;5.30;;
69036;SDS011;58547;51.690;5.186;2022-08-01T07:37:28;6.72;;;4.63;;
69036;SDS011;58547;51.690;5.186;2022-08-01T07:39:54;6.57;;;4.43;;
69036;SDS011;58547;51.690;5.186;2022-08-01T07:42:19;6.32;;;4.25;;
69036;SDS011;58547;51.690;5.186;2022-08-01T07:44:44;25.17;;;6.43;;
69036;SDS011;58547;51.690;5.186;2022-08-01T07:47:10;16.80;;;4.95;;
69036;SDS011;58547;51.690;5.186;2022-08-01T07:49:35;24.88;;;5.78;;
69036;SDS011;58547;51.690;5.186;2022-08-01T07:52:01;6.55;;;3.85;;
69036;SDS011;58547;51.690;5.186;2022-08-01T07:54:26;6.50;;;3.70;;
69036;SDS011;58547;51.690;5.186;2022-08-01T07:56:53;5.97;;;3.80;;
69036;SDS011;58547;51.690;5.186;2022-08-01T07:59:18;7.43;;;3.97;;
69036;SDS011;58547;51.690;5.186;2022-08-01T08:01:48;5.78;;;3.63;;
69036;SDS011;58547;51.690;5.186;2022-08-01T08:04:15;4.30;;;3.30;;
69036;SDS011;58547;51.690;5.186;2022-08-01T08:06:41;7.30;;;3.90;;
69036;SDS011;58547;51.690;5.186;2022-08-01T08:09:06;4.97;;;3.50;;
69036;SDS011;58547;51.690;5.186;2022-08-01T08:11:32;10.52;;;3.35;;
69036;SDS011;58547;51.690;5.186;2022-08-01T08:13:57;12.27;;;3.30;;
69036;SDS011;58547;51.690;5.186;2022-08-01T08:16:22;5.35;;;2.28;;
69036;SDS011;58547;51.690;5.186;2022-08-01T08:18:51;3.08;;;2.03;;
69036;SDS011;58547;51.690;5.186;2022-08-01T08:21:16;3.67;;;2.55;;
69036;SDS011;58547;51.690;5.186;2022-08-01T08:23:41;1.92;;;1.25;;
69036;SDS011;58547;51.690;5.186;2022-08-01T08:26:25;2.22;;;1.40;;
69036;SDS011;58547;51.690;5.186;2022-08-01T08:28:51;12.25;;;2.80;;
69036;SDS011;58547;51.690;5.186;2022-08-01T08:31:16;22.25;;;3.47;;
69036;SDS011;58547;51.690;5.186;2022-08-01T08:33:42;4.32;;;1.92;;
69036;SDS011;58547;51.690;5.186;2022-08-01T08:36:07;6.97;;;2.10;;
69036;SDS011;58547;51.690;5.186;2022-08-01T08:38:33;3.15;;;1.30;;
69036;SDS011;58547;51.690;5.186;2022-08-01T08:40:59;4.82;;;1.52;;
69036;SDS011;58547;51.690;5.186;2022-08-01T08:43:24;2.53;;;1.90;;
69036;SDS011;58547;51.690;5.186;2022-08-01T08:45:50;3.80;;;2.03;;
69036;SDS011;58547;51.690;5.186;2022-08-01T08:48:17;3.50;;;1.60;;
69036;SDS011;58547;51.690;5.186;2022-08-01T08:50:43;3.17;;;1.25;;
69036;SDS011;58547;51.690;5.186;2022-08-01T08:53:11;3.33;;;1.92;;
69036;SDS011;58547;51.690;5.186;2022-08-01T08:55:39;2.78;;;1.80;;
69036;SDS011;58547;51.690;5.186;2022-08-01T08:58:09;2.20;;;1.73;;
69036;SDS011;58547;51.690;5.186;2022-08-01T09:00:38;3.60;;;1.70;;
69036;SDS011;58547;51.690;5.186;2022-08-01T09:03:04;3.92;;;1.75;;
69036;SDS011;58547;51.690;5.186;2022-08-01T09:05:30;4.82;;;1.88;;
69036;SDS011;58547;51.690;5.186;2022-08-01T09:07:55;3.13;;;1.95;;
69036;SDS011;58547;51.690;5.186;2022-08-01T09:10:20;3.30;;;2.00;;
69036;SDS011;58547;51.690;5.186;2022-08-01T09:15:42;2.85;;;1.80;;
69036;SDS011;58547;51.690;5.186;2022-08-01T09:23:34;3.28;;;1.55;;
69036;SDS011;58547;51.690;5.186;2022-08-01T09:26:04;8.73;;;1.95;;
69036;SDS011;58547;51.690;5.186;2022-08-01T09:28:31;5.47;;;2.33;;
69036;SDS011;58547;51.690;5.186;2022-08-01T09:30:57;21.92;;;3.75;;
69036;SDS011;58547;51.690;5.186;2022-08-01T09:33:23;4.55;;;1.80;;
69036;SDS011;58547;51.690;5.186;2022-08-01T09:35:55;2.95;;;1.33;;
69036;SDS011;58547;51.690;5.186;2022-08-01T09:38:22;6.70;;;1.83;;
69036;SDS011;58547;51.690;5.186;2022-08-01T09:40:57;4.90;;;1.40;;
69036;SDS011;58547;51.690;5.186;2022-08-01T09:43:30;5.55;;;2.03;;
69036;SDS011;58547;51.690;5.186;2022-08-01T09:45:56;5.07;;;2.35;;
69036;SDS011;58547;51.690;5.186;2022-08-01T09:48:24;5.70;;;2.53;;
69036;SDS011;58547;51.690;5.186;2022-08-01T09:50:52;17.02;;;3.58;;
69036;SDS011;58547;51.690;5.186;2022-08-01T09:53:19;17.85;;;3.53;;
69036;SDS011;58547;51.690;5.186;2022-08-01T09:55:44;11.90;;;3.38;;
69036;SDS011;58547;51.690;5.186;2022-08-01T09:58:10;15.05;;;3.42;;
69036;SDS011;58547;51.690;5.186;2022-08-01T10:00:36;18.40;;;3.20;;
69036;SDS011;58547;51.690;5.186;2022-08-01T10:03:23;9.90;;;3.00;;
69036;SDS011;58547;51.690;5.186;2022-08-01T10:05:49;7.57;;;2.58;;
69036;SDS011;58547;51.690;5.186;2022-08-01T10:08:16;8.05;;;2.88;;
69036;SDS011;58547;51.690;5.186;2022-08-01T10:10:46;9.20;;;2.70;;
69036;SDS011;58547;51.690;5.186;2022-08-01T10:13:33;8.00;;;2.75;;
69036;SDS011;58547;51.690;5.186;2022-08-01T10:15:59;4.53;;;2.30;;
69036;SDS011;58547;51.690;5.186;2022-08-01T10:18:25;5.55;;;2.95;;
69036;SDS011;58547;51.690;5.186;2022-08-01T10:20:53;6.55;;;2.15;;
69036;SDS011;58547;51.690;5.186;2022-08-01T10:23:19;4.78;;;2.63;;
69036;SDS011;58547;51.690;5.186;2022-08-01T10:25:46;11.32;;;3.15;;
69036;SDS011;58547;51.690;5.186;2022-08-01T10:28:13;7.18;;;2.45;;
69036;SDS011;58547;51.690;5.186;2022-08-01T10:30:43;4.97;;;2.10;;
69036;SDS011;58547;51.690;5.186;2022-08-01T10:33:10;7.38;;;2.58;;
69036;SDS011;58547;51.690;5.186;2022-08-01T10:35:36;5.57;;;2.60;;
69036;SDS011;58547;51.690;5.186;2022-08-01T10:38:03;6.75;;;2.67;;
69036;SDS011;58547;51.690;5.186;2022-08-01T10:40:29;9.77;;;3.05;;
69036;SDS011;58547;51.690;5.186;2022-08-01T10:42:55;7.97;;;2.45;;
69036;SDS011;58547;51.690;5.186;2022-08-01T10:45:21;5.82;;;2.38;;
69036;SDS011;58547;51.690;5.186;2022-08-01T10:47:51;6.35;;;3.13;;
69036;SDS011;58547;51.690;5.186;2022-08-01T10:50:29;7.78;;;3.10;;
69036;SDS011;58547;51.690;5.186;2022-08-01T10:56:23;8.05;;;2.70;;
69036;SDS011;58547;51.690;5.186;2022-08-01T10:58:29;2.75;;;1.92;;
69036;SDS011;58547;51.690;5.186;2022-08-01T11:04:12;5.85;;;1.83;;
69036;SDS011;58547;51.690;5.186;2022-08-01T11:06:49;5.57;;;2.85;;
69036;SDS011;58547;51.690;5.186;2022-08-01T11:09:30;3.85;;;1.92;;
69036;SDS011;58547;51.690;5.186;2022-08-01T11:12:11;6.18;;;2.60;;
69036;SDS011;58547;51.690;5.186;2022-08-01T11:23:23;7.93;;;2.83;;
69036;SDS011;58547;51.690;5.186;2022-08-01T11:26:11;5.88;;;2.47;;
69036;SDS011;58547;51.690;5.186;2022-08-01T11:33:47;8.65;;;3.35;;
69036;SDS011;58547;51.690;5.186;2022-08-01T11:38:44;6.30;;;2.60;;
69036;SDS011;58547;51.690;5.186;2022-08-01T11:43:55;8.05;;;2.95;;
69036;SDS011;58547;51.690;5.186;2022-08-01T11:52:04;7.47;;;3.05;;
69036;SDS011;58547;51.690;5.186;2022-08-01T11:54:31;11.75;;;2.40;;
69036;SDS011;58547;51.690;5.186;2022-08-01T11:57:00;5.35;;;2.25;;
69036;SDS011;58547;51.690;5.186;2022-08-01T11:59:27;11.32;;;2.58;;
69036;SDS011;58547;51.690;5.186;2022-08-01T12:01:53;6.35;;;2.40;;
69036;SDS011;58547;51.690;5.186;2022-08-01T12:04:19;7.38;;;3.00;;
69036;SDS011;58547;51.690;5.186;2022-08-01T12:06:45;9.20;;;2.58;;
69036;SDS011;58547;51.690;5.186;2022-08-01T12:09:18;8.38;;;2.25;;
69036;SDS011;58547;51.690;5.186;2022-08-01T12:11:45;4.70;;;2.25;;
69036;SDS011;58547;51.690;5.186;2022-08-01T12:14:20;7.00;;;2.90;;
69036;SDS011;58547;51.690;5.186;2022-08-01T12:16:50;9.77;;;2.30;;
69036;SDS011;58547;51.690;5.186;2022-08-01T12:19:18;8.43;;;2.00;;
69036;SDS011;58547;51.690;5.186;2022-08-01T12:24:37;7.57;;;2.15;;
69036;SDS011;58547;51.690;5.186;2022-08-01T12:27:04;4.75;;;2.13;;
69036;SDS011;58547;51.690;5.186;2022-08-01T12:29:34;5.88;;;1.67;;
69036;SDS011;58547;51.690;5.186;2022-08-01T12:32:00;12.15;;;2.33;;
69036;SDS011;58547;51.690;5.186;2022-08-01T12:34:27;6.78;;;2.30;;
69036;SDS011;58547;51.690;5.186;2022-08-01T12:36:57;6.53;;;1.88;;
69036;SDS011;58547;51.690;5.186;2022-08-01T12:39:33;8.85;;;2.53;;
69036;SDS011;58547;51.690;5.186;2022-08-01T12:41:59;17.60;;;3.08;;
69036;SDS011;58547;51.690;5.186;2022-08-01T12:44:25;17.08;;;2.60;;
69036;SDS011;58547;51.690;5.186;2022-08-01T12:46:55;9.18;;;2.92;;
69036;SDS011;58547;51.690;5.186;2022-08-01T12:49:21;6.90;;;2.40;;
69036;SDS011;58547;51.690;5.186;2022-08-01T12:51:47;6.57;;;1.88;;
69036;SDS011;58547;51.690;5.186;2022-08-01T12:54:14;5.22;;;1.90;;
69036;SDS011;58547;51.690;5.186;2022-08-01T12:56:39;11.25;;;2.35;;
69036;SDS011;58547;51.690;5.186;2022-08-01T12:59:20;16.58;;;3.28;;
69036;SDS011;58547;51.690;5.186;2022-08-01T13:01:54;10.75;;;2.60;;
69036;SDS011;58547;51.690;5.186;2022-08-01T13:04:20;14.40;;;3.83;;
69036;SDS011;58547;51.690;5.186;2022-08-01T13:06:46;10.10;;;2.30;;
69036;SDS011;58547;51.690;5.186;2022-08-01T13:09:13;6.88;;;1.88;;
69036;SDS011;58547;51.690;5.186;2022-08-01T13:11:41;10.77;;;2.00;;
69036;SDS011;58547;51.690;5.186;2022-08-01T13:14:08;7.88;;;2.10;;
69036;SDS011;58547;51.690;5.186;2022-08-01T13:16:44;4.93;;;1.80;;
69036;SDS011;58547;51.690;5.186;2022-08-01T13:19:11;7.15;;;1.73;;
69036;SDS011;58547;51.690;5.186;2022-08-01T13:21:37;5.85;;;2.15;;
69036;SDS011;58547;51.690;5.186;2022-08-01T13:29:15;6.80;;;2.10;;
69036;SDS011;58547;51.690;5.186;2022-08-01T13:31:45;7.07;;;2.13;;
69036;SDS011;58547;51.690;5.186;2022-08-01T13:34:12;10.18;;;1.95;;
69036;SDS011;58547;51.690;5.186;2022-08-01T13:36:37;5.03;;;1.83;;
69036;SDS011;58547;51.690;5.186;2022-08-01T13:39:04;7.75;;;2.30;;
69036;SDS011;58547;51.690;5.186;2022-08-01T13:41:48;6.68;;;2.15;;
69036;SDS011;58547;51.690;5.186;2022-08-01T13:44:14;5.68;;;1.70;;
69036;SDS011;58547;51.690;5.186;2022-08-01T13:46:40;3.83;;;1.45;;
69036;SDS011;58547;51.690;5.186;2022-08-01T13:49:08;8.25;;;1.92;;
69036;SDS011;58547;51.690;5.186;2022-08-01T13:51:34;7.70;;;1.90;;
69036;SDS011;58547;51.690;5.186;2022-08-01T13:54:00;9.35;;;2.20;;
69036;SDS011;58547;51.690;5.186;2022-08-01T13:56:25;6.65;;;1.90;;
69036;SDS011;58547;51.690;5.186;2022-08-01T13:58:52;7.57;;;1.75;;
69036;SDS011;58547;51.690;5.186;2022-08-01T14:01:18;5.95;;;1.85;;
69036;SDS011;58547;51.690;5.186;2022-08-01T14:03:44;5.50;;;1.60;;
69036;SDS011;58547;51.690;5.186;2022-08-01T14:06:09;6.47;;;1.92;;
69036;SDS011;58547;51.690;5.186;2022-08-01T14:08:35;6.60;;;1.80;;
69036;SDS011;58547;51.690;5.186;2022-08-01T14:11:00;5.97;;;1.77;;
69036;SDS011;58547;51.690;5.186;2022-08-01T14:13:25;7.55;;;1.77;;
69036;SDS011;58547;51.690;5.186;2022-08-01T14:15:51;4.95;;;1.90;;
69036;SDS011;58547;51.690;5.186;2022-08-01T14:18:17;7.30;;;2.38;;
69036;SDS011;58547;51.690;5.186;2022-08-01T14:20:43;10.52;;;2.00;;
69036;SDS011;58547;51.690;5.186;2022-08-01T14:23:08;7.80;;;2.78;;
69036;SDS011;58547;51.690;5.186;2022-08-01T14:25:35;6.78;;;1.90;;
69036;SDS011;58547;51.690;5.186;2022-08-01T14:28:01;6.88;;;1.77;;
69036;SDS011;58547;51.690;5.186;2022-08-01T14:30:27;4.90;;;1.52;;
69036;SDS011;58547;51.690;5.186;2022-08-01T14:32:52;4.35;;;1.58;;
69036;SDS011;58547;51.690;5.186;2022-08-01T14:35:18;6.32;;;1.60;;
69036;SDS011;58547;51.690;5.186;2022-08-01T14:37:43;6.63;;;2.10;;
69036;SDS011;58547;51.690;5.186;2022-08-01T14:40:08;16.98;;;6.13;;
69036;SDS011;58547;51.690;5.186;2022-08-01T14:42:34;6.10;;;1.98;;
69036;SDS011;58547;51.690;5.186;2022-08-01T14:45:00;4.72;;;1.60;;
69036;SDS011;58547;51.690;5.186;2022-08-01T14:47:26;4.68;;;1.50;;
69036;SDS011;58547;51.690;5.186;2022-08-01T14:49:51;7.45;;;1.77;;
69036;SDS011;58547;51.690;5.186;2022-08-01T14:52:17;7.25;;;2.00;;
69036;SDS011;58547;51.690;5.186;2022-08-01T14:54:42;8.88;;;1.80;;
69036;SDS011;58547;51.690;5.186;2022-08-01T14:57:08;6.38;;;1.65;;
69036;SDS011;58547;51.690;5.186;2022-08-01T14:59:33;7.50;;;1.83;;
69036;SDS011;58547;51.690;5.186;2022-08-01T15:01:58;4.32;;;1.38;;
69036;SDS011;58547;51.690;5.186;2022-08-01T15:04:24;5.47;;;1.77;;
69036;SDS011;58547;51.690;5.186;2022-08-01T15:06:49;7.70;;;1.85;;
69036;SDS011;58547;51.690;5.186;2022-08-01T15:09:15;6.70;;;1.73;;
69036;SDS011;58547;51.690;5.186;2022-08-01T15:11:40;8.40;;;1.85;;
69036;SDS011;58547;51.690;5.186;2022-08-01T15:14:05;5.82;;;2.15;;
69036;SDS011;58547;51.690;5.186;2022-08-01T15:16:49;4.00;;;1.48;;
69036;SDS011;58547;51.690;5.186;2022-08-01T15:19:15;8.73;;;1.40;;
69036;SDS011;58547;51.690;5.186;2022-08-01T15:21:40;5.88;;;1.45;;
69036;SDS011;58547;51.690;5.186;2022-08-01T15:24:06;5.88;;;1.42;;
69036;SDS011;58547;51.690;5.186;2022-08-01T15:26:31;5.15;;;2.45;;
69036;SDS011;58547;51.690;5.186;2022-08-01T15:28:57;4.38;;;1.80;;
69036;SDS011;58547;51.690;5.186;2022-08-01T15:31:22;5.43;;;2.42;;
69036;SDS011;58547;51.690;5.186;2022-08-01T15:33:47;2.72;;;1.13;;
69036;SDS011;58547;51.690;5.186;2022-08-01T15:36:13;3.72;;;1.42;;
69036;SDS011;58547;51.690;5.186;2022-08-01T15:38:38;3.75;;;1.30;;
69036;SDS011;58547;51.690;5.186;2022-08-01T15:41:04;2.92;;;1.20;;
69036;SDS011;58547;51.690;5.186;2022-08-01T15:43:29;6.97;;;1.70;;
69036;SDS011;58547;51.690;5.186;2022-08-01T15:45:54;5.50;;;1.52;;
69036;SDS011;58547;51.690;5.186;2022-08-01T15:48:20;6.00;;;1.63;;
69036;SDS011;58547;51.690;5.186;2022-08-01T15:50:45;5.57;;;1.48;;
69036;SDS011;58547;51.690;5.186;2022-08-01T15:53:12;6.45;;;1.48;;
69036;SDS011;58547;51.690;5.186;2022-08-01T15:55:38;2.78;;;1.20;;
69036;SDS011;58547;51.690;5.186;2022-08-01T15:58:04;6.10;;;1.58;;
69036;SDS011;58547;51.690;5.186;2022-08-01T16:00:29;3.17;;;1.40;;
69036;SDS011;58547;51.690;5.186;2022-08-01T16:02:55;4.72;;;1.67;;
69036;SDS011;58547;51.690;5.186;2022-08-01T16:05:21;3.53;;;1.30;;
69036;SDS011;58547;51.690;5.186;2022-08-01T16:07:47;3.90;;;1.00;;